Time;durP1;ratioP1;P1;durP2;ratioP2;P2;SDS_P1;SDS_P2;PMS_P1;PMS_P2;Temp;Humidity;BMP_temperature;BMP_pressure;BME280_temperature;BME280_humidity;BME280_pressure;Samples;Min_cycle;Max_cycle;Signal;HPM_P1;HPM_P2
2022/06/12 00:01:11;;;;;;;32.63;5.63;;;;;;;10.42;100.00;101721.34;5026238;28;20156;-77
2022/06/12 00:03:37;;;;;;;35.55;6.90;;;;;;;10.37;100.00;101720.13;5007343;28;20073;-78
2022/06/12 00:06:05;;;;;;;28.88;5.97;;;;;;;10.39;100.00;101728.88;5028168;28;20053;-77
2022/06/12 00:08:35;;;;;;;22.38;6.90;;;;;;;10.41;100.00;101732.28;5025433;28;20036;-78
2022/06/12 00:11:02;;;;;;;25.60;5.88;;;;;;;10.43;100.00;101735.66;5022078;28;20032;-77
2022/06/12 00:13:31;;;;;;;37.70;6.57;;;;;;;10.39;100.00;101732.41;5008497;28;20471;-78
2022/06/12 00:15:58;;;;;;;26.20;5.32;;;;;;;10.42;100.00;101723.22;5009563;28;20120;-78
2022/06/12 00:18:24;;;;;;;27.95;7.63;;;;;;;10.54;100.00;101738.13;4996891;28;20045;-77
2022/06/12 00:21:10;;;;;;;27.27;6.03;;;;;;;10.53;100.00;101739.13;5023954;28;20033;-78
2022/06/12 00:23:35;;;;;;;27.55;5.00;;;;;;;10.48;100.00;101723.47;5038681;28;20037;-77
2022/06/12 00:26:00;;;;;;;28.73;6.45;;;;;;;10.57;100.00;101745.91;5008381;28;20046;-78
2022/06/12 00:28:26;;;;;;;27.67;5.38;;;;;;;10.62;100.00;101756.22;4990720;28;20056;-79
2022/06/12 00:30:52;;;;;;;18.15;6.20;;;;;;;10.56;100.00;101744.22;5011438;28;20040;-77
2022/06/12 00:33:17;;;;;;;19.23;5.32;;;;;;;10.46;100.00;101733.50;5021630;28;20048;-78
2022/06/12 00:35:43;;;;;;;29.23;6.95;;;;;;;10.52;100.00;101750.88;5023869;28;20479;-77
2022/06/12 00:38:08;;;;;;;20.40;4.90;;;;;;;10.51;100.00;101749.22;5007700;28;20094;-77
2022/06/12 00:40:34;;;;;;;21.45;4.68;;;;;;;10.42;100.00;101729.41;5021845;28;20108;-77
2022/06/12 00:43:01;;;;;;;28.92;5.80;;;;;;;10.44;100.00;101740.88;5026361;28;20033;-78
2022/06/12 00:45:33;;;;;;;23.30;5.20;;;;;;;10.19;100.00;101711.97;4992771;28;20521;-78
2022/06/12 00:48:01;;;;;;;32.15;5.97;;;;;;;10.16;100.00;101734.66;5022551;28;20025;-79
2022/06/12 00:50:29;;;;;;;30.98;6.65;;;;;;;10.02;100.00;101746.72;5018163;28;20033;-78
2022/06/12 00:52:55;;;;;;;21.90;4.63;;;;;;;9.66;100.00;101708.97;4990304;28;20037;-78
2022/06/12 00:55:24;;;;;;;24.27;5.10;;;;;;;9.90;100.00;101746.06;5004073;28;20032;-77
2022/06/12 00:57:53;;;;;;;29.33;6.40;;;;;;;9.95;100.00;101742.09;5021909;28;20044;-78
2022/06/12 01:00:19;;;;;;;27.95;6.18;;;;;;;10.06;100.00;101739.22;5001585;28;20060;-77
2022/06/12 01:02:45;;;;;;;22.85;6.50;;;;;;;10.18;100.00;101748.75;5004469;28;20014;-77
2022/06/12 01:07:59;;;;;;;25.95;5.88;;;;;;;10.29;100.00;101761.19;5010821;28;20033;-79
2022/06/12 01:10:28;;;;;;;24.73;5.70;;;;;;;10.27;100.00;101747.06;4989691;28;20037;-78
2022/06/12 01:13:16;;;;;;;24.00;5.88;;;;;;;10.32;100.00;101752.84;4988780;28;20033;-77
2022/06/12 01:15:47;;;;;;;35.38;7.03;;;;;;;10.21;100.00;101742.25;5042049;28;20434;-79
2022/06/12 01:18:16;;;;;;;30.40;7.05;;;;;;;10.27;100.00;101750.59;4990542;28;20136;-78
2022/06/12 01:20:51;;;;;;;21.35;5.03;;;;;;;10.37;100.00;101755.06;4992346;28;20033;-78
2022/06/12 01:23:28;;;;;;;16.20;4.75;;;;;;;10.41;100.00;101759.16;5021271;28;20079;-79
2022/06/12 01:26:08;;;;;;;24.70;5.85;;;;;;;10.42;100.00;101750.94;5026813;28;20095;-77
2022/06/12 01:28:46;;;;;;;35.78;5.90;;;;;;;10.49;100.00;101745.81;5002823;28;20165;-78
2022/06/12 01:31:37;;;;;;;38.97;6.80;;;;;;;10.46;100.00;101741.59;5024046;28;20045;-78
2022/06/12 01:34:20;;;;;;;26.55;6.10;;;;;;;10.52;100.00;101762.47;5024224;28;20029;-77
2022/06/12 01:37:05;;;;;;;25.98;6.32;;;;;;;10.55;100.00;101753.25;5002981;28;20140;-77
2022/06/12 01:39:50;;;;;;;20.20;5.00;;;;;;;10.30;100.00;101714.53;5029398;28;20041;-78
2022/06/12 01:42:31;;;;;;;28.60;5.30;;;;;;;10.53;100.00;101758.81;5012886;28;20168;-80
2022/06/12 01:45:10;;;;;;;24.85;5.60;;;;;;;10.49;100.00;101762.78;5004457;28;20114;-77
2022/06/12 01:47:53;;;;;;;36.97;6.95;;;;;;;10.39;100.00;101753.94;5006804;28;20033;-80
2022/06/12 01:50:44;;;;;;;33.08;5.47;;;;;;;10.09;100.00;101753.19;5008472;28;20345;-77
2022/06/12 01:53:14;;;;;;;23.10;5.00;;;;;;;9.86;100.00;101751.88;4999075;28;20087;-78
2022/06/12 01:55:52;;;;;;;29.95;5.65;;;;;;;9.60;100.00;101759.72;4992789;28;20025;-79
2022/06/12 01:58:22;;;;;;;19.70;4.93;;;;;;;9.40;100.00;101753.56;5009438;28;20096;-76
2022/06/12 02:00:58;;;;;;;23.00;4.43;;;;;;;9.14;100.00;101735.38;5016366;28;20037;-78
2022/06/12 02:03:34;;;;;;;20.05;5.45;;;;;;;9.21;100.00;101759.81;5031802;28;20105;-77
2022/06/12 02:06:06;;;;;;;18.38;4.80;;;;;;;8.94;100.00;101747.06;4995622;28;20030;-78
2022/06/12 02:08:39;;;;;;;21.17;5.10;;;;;;;8.85;100.00;101762.19;5023087;28;20120;-77
2022/06/12 02:13:55;;;;;;;24.10;5.55;;;;;;;8.52;100.00;101768.75;5020855;28;20513;-79
2022/06/12 02:16:29;;;;;;;21.65;5.22;;;;;;;8.42;100.00;101775.94;5007186;28;20487;-77
2022/06/12 02:18:58;;;;;;;;;;;;;;;8.31;100.00;101771.50;5006716;28;20041;-78
2022/06/12 02:21:33;;;;;;;19.73;5.32;;;;;;;8.19;100.00;101777.94;5037556;28;20451;-77
2022/06/12 02:24:13;;;;;;;28.35;5.70;;;;;;;8.11;100.00;101774.09;5025104;28;20029;-78
2022/06/12 02:26:57;;;;;;;26.05;5.30;;;;;;;8.05;100.00;101771.13;5024182;28;20030;-78
2022/06/12 02:29:35;;;;;;;21.73;5.82;;;;;;;8.07;100.00;101778.06;4988079;28;20476;-78
2022/06/12 02:32:07;;;;;;;28.05;6.28;;;;;;;8.08;100.00;101781.56;5011198;28;20038;-79
2022/06/12 02:34:37;;;;;;;30.13;6.63;;;;;;;8.02;100.00;101782.09;4995255;28;20131;-76
2022/06/12 02:37:30;;;;;;;24.80;6.10;;;;;;;7.85;100.00;101764.81;4990885;28;20037;-79
2022/06/12 02:39:59;;;;;;;26.67;5.28;;;;;;;7.91;100.00;101773.19;5033943;28;20072;-80
2022/06/12 02:42:31;;;;;;;28.63;6.55;;;;;;;7.95;100.00;101770.25;5000936;28;20037;-80
2022/06/12 02:45:08;;;;;;;35.40;6.18;;;;;;;7.79;100.00;101760.84;5005179;28;20075;-79
2022/06/12 02:47:35;;;;;;;26.60;5.85;;;;;;;7.72;100.00;101770.38;4992251;28;20040;-79
2022/06/12 02:50:04;;;;;;;27.95;5.22;;;;;;;7.61;100.00;101773.16;4994990;28;20048;-77
2022/06/12 02:52:45;;;;;;;26.08;5.55;;;;;;;7.50;100.00;101774.06;4998437;28;20041;-79
2022/06/12 02:55:25;;;;;;;32.22;5.80;;;;;;;7.44;100.00;101772.75;5028196;28;20068;-81
2022/06/12 02:58:10;;;;;;;19.88;5.45;;;;;;;7.43;100.00;101778.25;5023325;28;20082;-79
2022/06/12 03:00:43;;;;;;;29.88;5.88;;;;;;;7.47;100.00;101779.69;5003923;28;20039;-79
2022/06/12 03:03:17;;;;;;;26.15;5.13;;;;;;;7.47;100.00;101772.50;5028884;28;20390;-77
2022/06/12 03:05:44;;;;;;;19.80;4.75;;;;;;;7.48;100.00;101768.84;5021965;28;20383;-78
2022/06/12 03:08:16;;;;;;;23.95;5.35;;;;;;;7.45;100.00;101773.59;4996876;28;20036;-79
2022/06/12 03:11:01;;;;;;;23.45;5.03;;;;;;;7.34;100.00;101763.81;5006840;28;20119;-77
2022/06/12 03:13:28;;;;;;;21.00;5.40;;;;;;;7.24;100.00;101773.59;5026916;28;20030;-78
2022/06/12 03:16:17;;;;;;;24.80;5.80;;;;;;;7.22;100.00;101776.41;4994212;28;20060;-79
2022/06/12 03:19:18;;;;;;;25.83;5.63;;;;;;;7.19;100.00;101779.31;5026543;28;20033;-80
2022/06/12 03:21:56;;;;;;;27.95;6.32;;;;;;;7.32;100.00;101778.31;5042224;28;20037;-78
2022/06/12 03:24:46;;;;;;;28.23;5.82;;;;;;;7.47;100.00;101772.50;5026974;28;20041;-78
2022/06/12 03:27:48;;;;;;;18.90;4.65;;;;;;;7.63;100.00;101776.53;5026152;28;20124;-77
2022/06/12 03:30:30;;;;;;;25.65;6.28;;;;;;;7.82;100.00;101787.34;5010424;28;20045;-76
2022/06/12 03:33:02;;;;;;;26.23;5.82;;;;;;;7.99;100.00;101788.59;5028607;28;20049;-80
2022/06/12 03:36:00;;;;;;;12.82;4.15;;;;;;;8.17;100.00;101786.09;4994333;28;20037;-78
2022/06/12 03:38:38;;;;;;;21.33;5.40;;;;;;;8.31;100.00;101772.34;5002626;28;20144;-79
2022/06/12 03:41:27;;;;;;;34.25;6.88;;;;;;;8.50;100.00;101784.16;4994209;28;20398;-77
2022/06/12 03:44:06;;;;;;;24.20;6.03;;;;;;;8.67;100.00;101794.19;5011077;28;20050;-82
2022/06/12 03:46:58;;;;;;;27.13;6.88;;;;;;;8.72;100.00;101778.53;5022359;28;20553;-79
2022/06/12 03:49:45;;;;;;;13.68;5.45;;;;;;;8.87;100.00;101780.84;5025964;28;20040;-81
2022/06/12 03:52:28;;;;;;;18.20;5.10;;;;;;;8.92;100.00;101784.78;5027531;28;20546;-80
2022/06/12 03:55:09;;;;;;;27.15;5.55;;;;;;;8.97;100.00;101797.75;5007957;28;20030;-79
2022/06/12 03:57:51;;;;;;;26.15;5.43;;;;;;;8.98;100.00;101792.25;5022426;28;20480;-79
2022/06/12 04:00:36;;;;;;;24.05;6.15;;;;;;;9.05;100.00;101792.56;5006347;28;20044;-79
2022/06/12 04:03:11;;;;;;;25.88;4.97;;;;;;;9.06;100.00;101791.56;5017159;28;20069;-80
2022/06/12 04:05:43;;;;;;;26.48;6.55;;;;;;;8.86;100.00;101765.72;4999340;28;20038;-78
2022/06/12 04:08:15;;;;;;;28.35;5.88;;;;;;;9.03;100.00;101791.84;4986624;28;20040;-79
2022/06/12 04:10:40;;;;;;;13.43;4.22;;;;;;;8.93;100.00;101799.03;5007853;28;20033;-78
2022/06/12 04:13:09;;;;;;;18.17;4.72;;;;;;;8.82;100.00;101796.50;5026000;28;20049;-78
2022/06/12 04:15:48;;;;;;;22.25;5.30;;;;;;;8.63;100.00;101787.44;5009899;28;20040;-79
2022/06/12 04:18:14;;;;;;;16.83;4.90;;;;;;;8.74;100.00;101794.50;5019880;28;20036;-77
2022/06/12 04:20:47;;;;;;;21.85;5.63;;;;;;;8.88;100.00;101802.13;5027242;28;20083;-77
2022/06/12 04:23:28;;;;;;;23.58;5.60;;;;;;;9.03;100.00;101803.44;5011924;28;20443;-78
2022/06/12 04:25:57;;;;;;;25.85;5.78;;;;;;;9.16;100.00;101805.00;5022302;28;20060;-79
2022/06/12 04:28:23;;;;;;;22.48;5.80;;;;;;;9.28;100.00;101808.38;5006724;28;20124;-77
2022/06/12 04:30:49;;;;;;;28.60;5.90;;;;;;;9.28;100.00;101798.47;5027199;28;20025;-78
2022/06/12 04:33:53;;;;;;;17.13;5.22;;;;;;;9.46;100.00;101809.34;5006607;28;20048;-78
2022/06/12 04:36:19;;;;;;;22.80;5.68;;;;;;;9.51;100.00;101815.16;5014629;28;20052;-78
2022/06/12 04:38:45;;;;;;;25.13;6.00;;;;;;;9.49;100.00;101811.75;4998764;28;20489;-78
2022/06/12 04:41:19;;;;;;;14.50;5.05;;;;;;;9.44;100.00;101811.31;5020787;28;20045;-79
2022/06/12 04:43:45;;;;;;;16.15;3.65;;;;;;;9.41;100.00;101799.03;5023377;28;20120;-78
2022/06/12 04:46:10;;;;;;;18.08;5.43;;;;;;;9.46;100.00;101812.88;4994072;28;20057;-79
2022/06/12 04:48:38;;;;;;;20.02;5.10;;;;;;;9.57;100.00;101813.72;5018710;28;20029;-79
2022/06/12 04:51:05;;;;;;;19.40;4.97;;;;;;;9.78;100.00;101816.22;5009376;28;20041;-78
2022/06/12 04:53:31;;;;;;;22.08;4.63;;;;;;;9.90;100.00;101813.22;5025190;28;20360;-80
2022/06/12 04:55:57;;;;;;;17.13;4.30;;;;;;;10.16;100.00;101812.59;5023550;28;20069;-80
2022/06/12 04:58:23;;;;;;;19.13;4.75;;;;;;;10.46;100.00;101814.19;5018556;28;20076;-78
2022/06/12 05:00:49;;;;;;;18.45;4.97;;;;;;;10.86;99.91;101814.81;4990515;28;20038;-78
2022/06/12 05:03:14;;;;;;;21.92;4.95;;;;;;;11.33;97.17;101817.28;5022492;28;20040;-79
2022/06/12 05:05:41;;;;;;;15.95;4.18;;;;;;;11.85;94.39;101820.91;5005566;28;20049;-78
2022/06/12 05:08:08;;;;;;;18.83;4.70;;;;;;;12.33;91.09;101829.44;5027716;28;20069;-78
2022/06/12 05:10:34;;;;;;;12.82;3.97;;;;;;;12.76;88.16;101812.25;5014734;28;20052;-79
2022/06/12 05:13:00;;;;;;;18.45;4.60;;;;;;;13.32;85.85;101820.66;4993238;28;20033;-78
2022/06/12 05:15:25;;;;;;;23.25;5.00;;;;;;;13.79;83.54;101819.13;4993906;28;20076;-77
2022/06/12 05:17:51;;;;;;;21.75;4.35;;;;;;;14.15;81.30;101815.97;5011764;28;20037;-77
2022/06/12 05:20:22;;;;;;;25.65;5.18;;;;;;;14.42;79.14;101818.28;5022826;28;20033;-78
2022/06/12 05:22:48;;;;;;;11.35;3.92;;;;;;;14.18;79.41;101813.75;5007046;28;20129;-78
2022/06/12 05:25:15;;;;;;;18.40;4.47;;;;;;;14.52;77.95;101818.91;5038920;28;20057;-77
2022/06/12 05:27:42;;;;;;;20.00;4.88;;;;;;;14.80;76.75;101831.16;4991182;28;20042;-78
2022/06/12 05:30:10;;;;;;;15.57;3.30;;;;;;;14.92;75.62;101824.28;5021941;28;20045;-78
2022/06/12 05:32:35;;;;;;;16.35;4.80;;;;;;;14.09;78.26;101831.06;5004114;28;20040;-79
2022/06/12 05:35:01;;;;;;;14.60;4.63;;;;;;;13.36;81.22;101826.53;4996029;28;20041;-77
2022/06/12 05:37:27;;;;;;;16.63;4.45;;;;;;;12.99;83.74;101835.91;5027191;28;20044;-79
2022/06/12 05:39:52;;;;;;;14.93;4.55;;;;;;;12.64;85.81;101837.84;5025159;28;20454;-78
2022/06/12 05:42:18;;;;;;;16.85;5.00;;;;;;;12.25;87.77;101826.69;4991922;28;20045;-78
2022/06/12 05:44:44;;;;;;;17.67;4.25;;;;;;;11.92;89.87;101814.91;5021369;28;20053;-79
2022/06/12 05:47:10;;;;;;;12.27;3.60;;;;;;;11.64;91.45;101806.91;5022453;28;20051;-77
2022/06/12 05:49:36;;;;;;;13.27;3.90;;;;;;;11.54;93.07;101819.66;5011400;28;20033;-76
2022/06/12 05:52:01;;;;;;;18.75;5.43;;;;;;;11.71;93.13;101831.38;4994489;28;20034;-79
2022/06/12 05:54:27;;;;;;;19.40;5.78;;;;;;;11.64;94.07;101839.25;5007797;28;20038;-80
2022/06/12 05:56:53;;;;;;;19.65;4.93;;;;;;;11.57;94.72;101836.34;5021389;28;20029;-79
2022/06/12 05:59:19;;;;;;;13.30;4.80;;;;;;;11.57;94.90;101841.72;4988651;28;20022;-80
2022/06/12 06:01:44;;;;;;;15.50;4.78;;;;;;;11.56;94.68;101839.19;4990755;28;20083;-78
2022/06/12 06:04:10;;;;;;;17.35;4.53;;;;;;;11.62;94.97;101836.72;5004899;28;20033;-81
2022/06/12 06:06:48;;;;;;;13.15;4.13;;;;;;;11.79;94.56;101847.63;5014250;28;20029;-78
2022/06/12 06:09:14;;;;;;;17.13;4.22;;;;;;;11.98;93.87;101858.22;4985388;28;20033;-79
2022/06/12 06:11:41;;;;;;;9.57;2.85;;;;;;;12.07;93.55;101854.59;4991615;28;20057;-77
2022/06/12 06:14:07;;;;;;;12.65;4.25;;;;;;;11.87;92.65;101816.22;5004914;28;20507;-80
2022/06/12 06:16:35;;;;;;;8.77;3.42;;;;;;;12.20;92.04;101856.00;5006299;28;20124;-78
2022/06/12 06:19:00;;;;;;;14.63;4.47;;;;;;;12.19;91.53;101857.84;4992630;28;20041;-79
2022/06/12 06:21:26;;;;;;;17.05;5.32;;;;;;;12.18;91.35;101852.63;4993990;28;20040;-78
2022/06/12 06:23:51;;;;;;;14.63;4.90;;;;;;;12.24;90.59;101854.69;5003234;28;20527;-78
2022/06/12 06:26:19;;;;;;;20.20;4.53;;;;;;;12.31;90.12;101853.03;4993443;28;20467;-81
2022/06/12 06:28:45;;;;;;;17.25;4.80;;;;;;;12.28;89.63;101848.81;5012418;28;20033;-76
2022/06/12 06:31:11;;;;;;;19.33;4.50;;;;;;;12.35;89.15;101861.66;5009083;28;20157;-77
2022/06/12 06:33:37;;;;;;;11.60;4.50;;;;;;;12.37;88.84;101867.72;4993731;28;20515;-78
2022/06/12 06:36:03;;;;;;;11.57;3.83;;;;;;;12.31;88.90;101872.75;5006521;28;20037;-78
2022/06/12 06:38:29;;;;;;;13.73;4.85;;;;;;;12.20;89.25;101866.78;5012535;28;20037;-77
2022/06/12 06:40:56;;;;;;;9.10;3.50;;;;;;;12.03;89.98;101871.22;5024719;28;20033;-79
2022/06/12 06:43:21;;;;;;;12.60;3.08;;;;;;;11.87;90.13;101872.81;5039728;28;20090;-76
2022/06/12 06:48:32;;;;;;;14.68;3.17;;;;;;;11.75;90.58;101875.88;5029301;28;20155;-78
2022/06/12 06:50:58;;;;;;;11.65;4.13;;;;;;;11.57;90.73;101862.44;5008503;28;20026;-78
2022/06/12 06:53:24;;;;;;;16.58;4.53;;;;;;;11.66;91.04;101891.13;5011778;28;21633;-78
2022/06/12 06:55:50;;;;;;;11.15;3.38;;;;;;;11.65;91.15;101892.97;5000510;28;20045;-79
2022/06/12 06:58:19;;;;;;;14.82;3.45;;;;;;;11.69;92.18;101881.88;5019642;28;20036;-79
2022/06/12 07:00:46;;;;;;;14.90;3.50;;;;;;;11.88;92.01;101893.38;4982867;28;20042;-79
2022/06/12 07:03:12;;;;;;;6.72;3.35;;;;;;;12.09;91.62;101900.25;5013789;28;20045;-79
2022/06/12 07:05:39;;;;;;;14.00;3.45;;;;;;;12.04;91.67;101881.00;5003481;28;20029;-79
2022/06/12 07:08:05;;;;;;;11.43;3.20;;;;;;;12.11;91.45;101900.94;5038847;28;20070;-79
2022/06/12 07:10:32;;;;;;;17.13;3.95;;;;;;;12.20;90.64;101915.31;5003939;28;20163;-79
2022/06/12 07:12:58;;;;;;;10.60;4.43;;;;;;;12.24;90.66;101889.72;5007463;28;20037;-78
2022/06/12 07:15:25;;;;;;;14.13;3.47;;;;;;;12.61;89.05;101910.19;5020614;28;20038;-79
2022/06/12 07:17:51;;;;;;;13.93;4.32;;;;;;;12.90;87.59;101917.91;5023820;28;20029;-78
2022/06/12 07:20:19;;;;;;;10.48;3.83;;;;;;;13.08;85.99;101907.84;4990961;28;20036;-80
2022/06/12 07:22:48;;;;;;;11.57;4.10;;;;;;;13.40;84.25;101911.66;5026625;28;20033;-79
2022/06/12 07:25:15;;;;;;;10.45;3.17;;;;;;;14.29;79.94;101891.03;5012868;28;20041;-80
2022/06/12 07:27:42;;;;;;;12.48;3.70;;;;;;;14.23;79.96;101908.78;5027415;28;20044;-79
2022/06/12 07:30:20;;;;;;;7.63;3.55;;;;;;;15.94;72.29;101918.97;4992054;28;20127;-79
2022/06/12 07:32:46;;;;;;;12.48;3.53;;;;;;;17.90;65.00;101918.41;5022370;28;20025;-78
2022/06/12 07:35:12;;;;;;;9.60;3.55;;;;;;;20.03;57.26;101914.75;4997706;28;20048;-78
2022/06/12 07:37:38;;;;;;;5.40;2.50;;;;;;;18.52;59.46;101911.28;4996158;28;20553;-77
2022/06/12 07:40:06;;;;;;;13.32;3.55;;;;;;;17.58;63.42;101915.13;5017640;28;20021;-79
2022/06/12 07:42:34;;;;;;;15.90;3.50;;;;;;;17.13;64.05;101909.84;5017567;28;20107;-79
2022/06/12 07:45:00;;;;;;;10.85;3.47;;;;;;;18.63;60.66;101911.59;5051999;28;20094;-78
2022/06/12 07:47:27;;;;;;;13.48;3.40;;;;;;;18.33;61.21;101916.41;4991360;28;20033;-79
2022/06/12 07:49:53;;;;;;;7.82;3.22;;;;;;;20.14;54.63;101908.66;4987801;28;20057;-78
2022/06/12 07:52:20;;;;;;;11.55;3.22;;;;;;;19.75;55.00;101910.31;5005549;28;20029;-78
2022/06/12 07:54:46;;;;;;;10.95;2.92;;;;;;;20.25;52.97;101903.59;5027373;28;20032;-76
2022/06/12 07:57:12;;;;;;;9.80;3.60;;;;;;;18.61;56.96;101891.03;4986482;28;20129;-78
2022/06/12 07:59:38;;;;;;;13.23;3.33;;;;;;;17.67;61.20;101916.69;5004902;28;20057;-78
2022/06/12 08:02:05;;;;;;;10.20;2.70;;;;;;;17.57;62.00;101916.16;5005046;28;20037;-77
2022/06/12 08:04:31;;;;;;;11.80;3.38;;;;;;;19.55;53.60;101925.78;5006301;28;20063;-77
2022/06/12 08:06:56;;;;;;;6.93;2.40;;;;;;;20.68;46.90;101911.31;5010020;28;20025;-79
2022/06/12 08:09:23;;;;;;;12.55;3.42;;;;;;;19.44;48.44;101918.22;5013394;28;20037;-77
2022/06/12 08:11:50;;;;;;;13.90;2.45;;;;;;;19.49;48.99;101919.28;5051898;28;20113;-77
2022/06/12 08:14:18;;;;;;;10.13;2.72;;;;;;;21.10;46.85;101911.78;4992717;28;20106;-78
2022/06/12 08:16:43;;;;;;;5.88;2.33;;;;;;;22.49;43.04;101913.50;5026190;28;20467;-78
2022/06/12 08:21:57;;;;;;;6.35;2.33;;;;;;;18.52;48.99;101933.09;5008896;28;20040;-78
2022/06/12 08:24:26;;;;;;;8.82;2.15;;;;;;;16.77;54.52;101936.97;5003574;28;20053;-78
2022/06/12 08:26:52;;;;;;;4.43;1.65;;;;;;;19.15;48.07;101938.47;5026784;28;20116;-77
2022/06/12 08:29:17;;;;;;;8.90;2.28;;;;;;;20.91;44.57;101938.97;5024045;28;20175;-77
2022/06/12 08:31:47;;;;;;;3.95;1.83;;;;;;;22.54;38.32;101921.84;5023773;28;20487;-78
2022/06/12 08:34:26;;;;;;;4.10;1.83;;;;;;;23.16;34.99;101929.19;5007026;28;20050;-78
2022/06/12 08:36:56;;;;;;;3.35;1.73;;;;;;;23.62;33.86;101916.69;5024153;28;20087;-76
2022/06/12 08:39:35;;;;;;;4.82;1.92;;;;;;;24.24;31.84;101900.69;4989720;28;20225;-78
2022/06/12 08:42:26;;;;;;;4.43;1.35;;;;;;;21.22;35.91;101915.47;5036186;28;20045;-76
2022/06/12 08:45:20;;;;;;;4.85;1.60;;;;;;;20.80;37.56;101939.66;5018694;28;20479;-78
2022/06/12 08:51:45;;;;;;;3.75;1.75;;;;;;;21.81;35.62;101889.66;4957499;28;20043;-78
2022/06/12 08:54:44;;;;;;;2.65;1.27;;;;;;;21.56;37.31;101925.19;5005971;28;20042;-75
2022/06/12 08:57:19;;;;;;;6.53;1.60;;;;;;;21.65;37.32;101926.63;4966712;28;20107;-81
2022/06/12 09:00:37;;;;;;;4.88;1.38;;;;;;;21.42;38.41;101929.94;4985168;28;20029;-78
2022/06/12 09:03:45;;;;;;;6.57;1.38;;;;;;;21.99;37.69;101923.63;4955205;28;20105;-78
2022/06/12 09:06:45;;;;;;;4.70;1.60;;;;;;;22.05;37.91;101909.06;4948280;28;20047;-77
2022/06/12 09:09:42;;;;;;;6.07;2.05;;;;;;;21.93;39.33;101914.41;5008298;28;20072;-76
2022/06/12 09:12:33;;;;;;;4.57;1.63;;;;;;;21.57;39.70;101921.41;5005215;28;20037;-77
2022/06/12 09:15:49;;;;;;;4.03;1.45;;;;;;;20.88;39.25;101906.63;5007158;28;20029;-77
2022/06/12 09:19:08;;;;;;;3.97;1.48;;;;;;;20.59;40.14;101924.38;5022149;28;20068;-79
2022/06/12 09:21:59;;;;;;;6.97;1.52;;;;;;;20.66;41.18;101911.50;5010267;28;20453;-80
2022/06/12 09:24:47;;;;;;;4.30;1.40;;;;;;;20.61;40.43;101938.63;5024962;28;20033;-79
2022/06/12 09:27:52;;;;;;;4.25;1.40;;;;;;;20.59;40.21;101927.09;5025524;28;20033;-81
2022/06/12 09:30:23;;;;;;;3.63;1.30;;;;;;;20.37;40.97;101934.66;5001957;28;20085;-79
2022/06/12 09:33:07;;;;;;;4.10;1.20;;;;;;;20.09;42.55;101935.75;4997508;28;20098;-78
2022/06/12 09:35:55;;;;;;;6.93;1.75;;;;;;;19.93;42.96;101960.72;5024652;28;20025;-78
2022/06/12 09:38:42;;;;;;;3.90;1.40;;;;;;;19.46;43.66;101951.59;5027132;28;20029;-80
2022/06/12 09:41:23;;;;;;;6.68;1.70;;;;;;;19.09;45.93;101937.41;5006226;28;20045;-80
2022/06/12 09:44:07;;;;;;;7.05;1.63;;;;;;;19.07;45.32;101943.03;5025156;28;20025;-79
2022/06/12 09:46:56;;;;;;;2.75;1.40;;;;;;;18.99;45.98;101942.38;5008110;28;20092;-79
2022/06/12 09:49:28;;;;;;;4.22;2.00;;;;;;;18.84;45.96;101931.63;4999687;28;20506;-82
2022/06/12 09:52:22;;;;;;;6.72;1.75;;;;;;;18.89;47.15;101930.00;5021405;28;20144;-78
2022/06/12 09:54:57;;;;;;;4.35;1.70;;;;;;;19.25;46.91;101926.13;5009110;28;20043;-78
2022/06/12 09:57:36;;;;;;;3.97;1.65;;;;;;;19.44;47.21;101942.75;4999253;28;20053;-78
2022/06/12 10:00:26;;;;;;;4.20;1.40;;;;;;;19.67;45.66;101946.00;5028741;28;20030;-80
2022/06/12 10:02:52;;;;;;;5.43;1.45;;;;;;;20.11;44.63;101944.56;5024888;28;20120;-79
2022/06/12 10:05:23;;;;;;;5.13;1.52;;;;;;;20.25;44.22;101923.53;5025147;28;20159;-77
2022/06/12 10:08:27;;;;;;;4.97;1.67;;;;;;;20.81;44.08;101942.16;5011650;28;20447;-81
2022/06/12 10:10:59;;;;;;;4.30;1.15;;;;;;;21.21;40.75;101949.38;4991672;28;20080;-78
2022/06/12 10:13:35;;;;;;;3.55;1.48;;;;;;;21.48;40.53;101945.44;4991434;28;20084;-81
2022/06/12 10:16:08;;;;;;;3.63;1.20;;;;;;;21.48;39.72;101941.88;5028048;28;20037;-79
2022/06/12 10:19:06;;;;;;;3.20;1.02;;;;;;;20.38;41.66;101947.28;5020442;28;20447;-78
2022/06/12 10:21:35;;;;;;;5.80;1.20;;;;;;;19.63;43.31;101958.31;5015776;28;20041;-77
2022/06/12 10:24:01;;;;;;;1.75;0.75;;;;;;;18.99;44.15;101956.84;5013476;28;20030;-80
2022/06/12 10:26:30;;;;;;;2.05;1.17;;;;;;;18.72;46.03;101953.13;5025377;28;20040;-80
2022/06/12 10:29:15;;;;;;;2.45;1.13;;;;;;;18.45;46.41;101955.69;5025641;28;20025;-79
2022/06/12 10:32:20;;;;;;;4.60;1.10;;;;;;;18.27;46.32;101963.50;5008525;28;20049;-78
2022/06/12 10:34:46;;;;;;;6.13;1.65;;;;;;;18.10;47.49;101959.38;5003005;28;20050;-79
2022/06/12 10:37:17;;;;;;;4.07;1.48;;;;;;;18.12;47.23;101960.03;5025458;28;20063;-79
2022/06/12 10:39:43;;;;;;;7.03;1.90;;;;;;;18.01;47.94;101962.22;4993645;28;20029;-79
2022/06/12 10:42:31;;;;;;;9.10;1.67;;;;;;;17.49;50.50;101966.09;5024440;28;20148;-78
2022/06/12 10:44:59;;;;;;;3.42;1.15;;;;;;;17.09;51.61;101960.19;4993008;28;20124;-77
2022/06/12 10:47:25;;;;;;;7.78;1.48;;;;;;;16.83;53.77;101965.25;5029122;28;20034;-78
2022/06/12 10:50:34;;;;;;;6.50;1.05;;;;;;;16.69;55.13;101989.47;5011148;28;20494;-79
2022/06/12 10:53:14;;;;;;;8.30;1.70;;;;;;;16.47;56.78;101976.81;4994559;28;20132;-76
2022/06/12 10:55:58;;;;;;;4.47;1.45;;;;;;;16.53;58.23;101989.63;5029498;28;20108;-79
2022/06/12 10:58:27;;;;;;;3.42;1.48;;;;;;;16.78;58.42;101989.44;5032788;28;20025;-78
2022/06/12 11:00:56;;;;;;;4.45;1.52;;;;;;;17.32;57.06;101986.38;5028280;28;20033;-79
2022/06/12 11:03:33;;;;;;;5.13;1.38;;;;;;;18.16;55.72;101983.94;5030155;28;20083;-81
2022/06/12 11:06:15;;;;;;;7.82;1.92;;;;;;;19.43;50.52;101979.28;5026072;28;20033;-78
2022/06/12 11:09:07;;;;;;;4.93;1.40;;;;;;;20.52;48.14;101964.50;5040326;28;20068;-79
2022/06/12 11:11:53;;;;;;;;;;;;;;;20.72;48.22;101978.13;5038041;28;20036;-78
2022/06/12 11:14:56;;;;;;;5.15;1.77;;;;;;;21.48;45.31;101977.47;5021489;28;20841;-79
2022/06/12 11:17:43;;;;;;;7.15;1.52;;;;;;;21.19;46.18;101978.81;5028653;28;20037;-78
2022/06/12 11:20:30;;;;;;;4.60;1.60;;;;;;;20.35;47.56;101973.13;5013800;28;20041;-79
2022/06/12 11:23:17;;;;;;;10.65;1.75;;;;;;;20.18;46.61;101967.22;5031213;28;20556;-78
2022/06/12 11:26:10;;;;;;;4.63;1.13;;;;;;;19.98;47.95;101958.22;5021754;28;20035;-81
2022/06/12 11:28:57;;;;;;;6.38;1.20;;;;;;;19.79;47.87;101956.28;5029182;28;20037;-79
2022/06/12 11:31:28;;;;;;;2.33;1.25;;;;;;;20.40;46.16;101959.69;5027490;28;21184;-77
2022/06/12 11:34:04;;;;;;;5.78;1.88;;;;;;;20.72;44.29;101950.78;5012015;28;20172;-78
2022/06/12 11:36:58;;;;;;;6.07;1.63;;;;;;;20.84;43.71;101949.09;5030993;28;20086;-79
2022/06/12 11:39:41;;;;;;;5.53;1.35;;;;;;;20.53;44.14;101966.16;5025416;28;20057;-78
2022/06/12 11:42:29;;;;;;;3.45;1.25;;;;;;;20.31;43.22;101966.41;5011889;28;20467;-79
2022/06/12 11:45:13;;;;;;;5.72;1.60;;;;;;;20.16;43.42;101966.63;5044637;28;20088;-80
2022/06/12 11:47:56;;;;;;;7.93;2.30;;;;;;;19.93;45.62;101963.47;5028687;28;20041;-78
2022/06/12 11:50:45;;;;;;;4.45;1.60;;;;;;;19.72;46.04;101962.59;4997798;28;20033;-80
2022/06/12 11:53:47;;;;;;;4.32;1.38;;;;;;;19.43;47.96;101971.09;4980280;28;1276497;-78
2022/06/12 11:56:30;;;;;;;4.50;1.67;;;;;;;19.20;48.02;101974.16;5027577;28;20045;-78
2022/06/12 11:59:05;;;;;;;7.18;2.03;;;;;;;19.65;47.44;101980.78;5013897;28;20365;-78
2022/06/12 12:01:36;;;;;;;6.60;1.77;;;;;;;20.26;46.34;101973.53;5029222;28;20131;-79
2022/06/12 12:04:14;;;;;;;4.78;1.40;;;;;;;20.34;46.32;101967.88;5016808;28;20144;-79
2022/06/12 12:07:08;;;;;;;8.48;1.60;;;;;;;20.64;45.87;101971.84;4996690;28;20043;-78
2022/06/12 12:10:04;;;;;;;6.43;2.00;;;;;;;20.74;45.38;101965.94;5027895;28;20030;-78